Main page
METAR-TAF:

METAR-TAF

Airports :

Passo Rolle, Italy

latitude: 46-18N, longitude: 011-47E, elevation: 2004 m

Current weather observation

The report was made 1 hour and 12 minutes ago, at 05:55 UTC
Wind 8 kt from the South
Temperature -2°C
Humidity 86%
Pressure 1009 hPa
Visibility 10 km or more
Broken clouds at a height of 2000 ft

METAR: LIVR 210555Z 18008KT 9999 BKN020 M02/M04 Q1009 RMK BKN MON CIME INC VIS MIN 9999

Time: 08:07 (07:07 UTC)


TAF: missing

Weather observations and forecasts of more than 4000 airports (METAR and TAF reports).

The available stations are represented by yellow and red dots on the map.

Hover mouse over dot to see the name of the station.

Then click to see weather observations and forecasts.

To change the map : click on the green buttons with a black cross to zoom in, on the green button with a dash to zoom out, or on the green arrows for adjacent maps.


METAR-TAF: